Time;durP1;ratioP1;P1;durP2;ratioP2;P2;SDS_P1;SDS_P2;PMS_P1;PMS_P2;Temp;Humidity;BMP_temperature;BMP_pressure;BME280_temperature;BME280_humidity;BME280_pressure;Samples;Min_cycle;Max_cycle;Signal;HPM_P1;HPM_P2
2023/07/09 00:00:14;;;;;;;4.20;2.40;;;;;;;21.80;75.54;98414.67;78470;1298;3027707;-67
2023/07/09 00:02:41;;;;;;;4.20;2.50;;;;;;;21.99;74.40;98409.63;79592;1295;3011886;-70
2023/07/09 00:05:14;;;;;;;4.00;2.50;;;;;;;21.82;74.97;98409.05;78441;1298;3056254;-63
2023/07/09 00:07:41;;;;;;;3.90;2.60;;;;;;;21.60;75.91;98415.14;79435;1294;3011551;-74
2023/07/09 00:10:17;;;;;;;3.90;2.60;;;;;;;21.37;76.92;98410.30;78305;1298;3053830;-65
2023/07/09 00:12:45;;;;;;;6.30;2.50;;;;;;;21.23;77.65;98409.65;78384;1295;3050322;-69
2023/07/09 00:15:13;;;;;;;3.80;1.80;;;;;;;21.24;77.92;98408.08;79638;1298;3018448;-67
2023/07/09 00:17:42;;;;;;;3.30;1.90;;;;;;;21.68;76.66;98407.55;79588;1296;3013526;-65
2023/07/09 00:20:13;;;;;;;3.20;2.00;;;;;;;21.93;75.05;98409.79;78506;1298;3051040;-70
2023/07/09 00:22:41;;;;;;;4.80;2.20;;;;;;;21.97;74.91;98405.04;79593;1295;3012137;-68
2023/07/09 00:25:13;;;;;;;4.10;2.60;;;;;;;21.76;75.74;98401.27;78373;1298;3049174;-64
2023/07/09 00:27:40;;;;;;;4.70;2.80;;;;;;;21.51;77.17;98404.70;79630;1295;3011814;-71
2023/07/09 00:30:15;;;;;;;4.30;2.70;;;;;;;21.29;78.40;98407.00;78374;1300;3025964;-65
2023/07/09 00:32:44;;;;;;;3.00;2.00;;;;;;;21.17;79.42;98408.42;78362;1298;3052719;-68
2023/07/09 00:35:15;;;;;;;3.40;2.00;;;;;;;21.70;77.79;98408.38;79639;1295;3012985;-69
2023/07/09 00:37:43;;;;;;;3.90;2.10;;;;;;;21.73;77.45;98415.88;78177;1301;3050792;-70
2023/07/09 00:40:18;;;;;;;3.90;2.30;;;;;;;21.58;78.22;98414.47;79515;1295;3013234;-68
2023/07/09 00:42:48;;;;;;;7.90;2.40;;;;;;;21.46;79.04;98416.46;78310;1298;3054409;-68
2023/07/09 00:45:22;;;;;;;3.10;2.40;;;;;;;21.20;80.38;98416.77;79497;1295;3012683;-69
2023/07/09 00:47:58;;;;;;;4.30;1.70;;;;;;;21.14;80.97;98423.73;78394;1295;3051955;-75
2023/07/09 00:50:50;;;;;;;5.50;2.20;;;;;;;21.44;80.31;98421.85;77996;1300;3068365;-67
2023/07/09 00:53:23;;;;;;;4.50;2.70;;;;;;;21.47;79.43;98429.40;78330;1298;3051562;-64
2023/07/09 00:56:03;;;;;;;9.50;3.20;;;;;;;21.10;81.27;98428.35;79428;1298;3014206;-63
2023/07/09 00:58:35;;;;;;;5.10;3.00;;;;;;;20.80;83.00;98433.14;78095;1298;3048791;-64
2023/07/09 01:01:03;;;;;;;5.40;3.20;;;;;;;20.52;84.84;98436.93;79666;1295;3011947;-66
2023/07/09 01:03:36;;;;;;;5.00;3.20;;;;;;;20.36;86.39;98439.16;78334;1298;3026312;-64
2023/07/09 01:06:03;;;;;;;5.80;3.00;;;;;;;20.69;85.52;98435.68;79460;1295;3011875;-64
2023/07/09 01:08:32;;;;;;;6.00;3.80;;;;;;;20.84;84.28;98440.20;78185;1298;3053554;-64
2023/07/09 01:11:21;;;;;;;6.50;3.50;;;;;;;20.75;84.89;98432.52;78256;1298;3069062;-64
2023/07/09 01:13:54;;;;;;;9.60;3.20;;;;;;;20.53;85.66;98433.17;78356;1294;3050665;-66
2023/07/09 01:16:23;;;;;;;5.80;2.20;;;;;;;20.35;87.29;98435.27;79490;1298;3012789;-63
2023/07/09 01:18:51;;;;;;;4.50;2.70;;;;;;;20.66;86.35;98442.24;78412;1295;3048405;-62
2023/07/09 01:21:18;;;;;;;4.30;3.40;;;;;;;20.76;85.47;98442.66;79261;1295;3019080;-64
2023/07/09 01:23:47;;;;;;;4.20;3.20;;;;;;;20.70;85.56;98436.31;79388;1295;3013474;-62
2023/07/09 01:26:17;;;;;;;9.50;3.60;;;;;;;20.56;86.19;98434.17;78373;1298;3052241;-65
2023/07/09 01:28:44;;;;;;;9.00;2.60;;;;;;;20.45;87.15;98428.75;79503;1295;3012976;-65
2023/07/09 01:31:14;;;;;;;4.80;2.80;;;;;;;20.70;86.22;98432.89;78891;1295;3013223;-63
2023/07/09 01:33:44;;;;;;;6.00;2.90;;;;;;;20.94;84.99;98432.17;79456;1295;3011759;-64
2023/07/09 01:36:17;;;;;;;7.50;3.60;;;;;;;20.76;85.60;98436.09;78071;1295;3026701;-64
2023/07/09 01:38:44;;;;;;;4.00;3.10;;;;;;;20.59;86.19;98439.10;79416;1295;3013134;-64
2023/07/09 01:41:14;;;;;;;3.00;2.40;;;;;;;20.49;87.17;98434.47;78381;1298;3048168;-63
2023/07/09 01:43:42;;;;;;;4.30;2.80;;;;;;;20.77;86.25;98436.14;79450;1298;3013577;-62
2023/07/09 01:46:09;;;;;;;3.70;3.00;;;;;;;20.87;85.60;98434.60;79476;1296;3011786;-62
2023/07/09 01:48:40;;;;;;;6.70;3.40;;;;;;;20.66;86.47;98440.10;78146;1298;3049902;-62
2023/07/09 01:51:16;;;;;;;4.60;3.10;;;;;;;20.40;88.06;98440.34;78884;1294;3011653;-65
2023/07/09 01:53:44;;;;;;;;;;;;;;;20.32;89.27;98445.17;79399;1294;3012974;-64
2023/07/09 01:56:12;;;;;;;6.30;3.30;;;;;;;20.68;87.80;98438.66;78214;1296;3049982;-64
2023/07/09 01:58:41;;;;;;;8.40;3.20;;;;;;;20.79;87.11;98440.64;79278;1299;3013256;-65
2023/07/09 02:01:12;;;;;;;6.50;3.90;;;;;;;20.70;87.35;98440.34;78341;1298;3052529;-64
2023/07/09 02:03:40;;;;;;;7.20;4.00;;;;;;;20.42;89.13;98448.80;79435;1298;3011656;-64
2023/07/09 02:06:09;;;;;;;4.30;3.20;;;;;;;20.38;90.13;98451.05;79459;1295;3011776;-64
2023/07/09 02:08:37;;;;;;;4.70;3.30;;;;;;;20.83;88.46;98438.14;78273;1295;3056687;-64
2023/07/09 02:11:07;;;;;;;5.10;4.00;;;;;;;20.99;87.10;98444.20;79330;1299;3011877;-64
2023/07/09 02:13:36;;;;;;;6.60;4.70;;;;;;;20.76;88.12;98446.77;78928;1298;3011538;-62
